This is the latest recevied weather packets stored in our database for station/object SP2NBH-2. If no packets are shown the sender has not sent any weather packets the latest 10 day(s).
| Time | Temp. | Humidity | Pressure | Rain* | Wind** | Luminosity | Snow |
|---|---|---|---|---|---|---|---|
| 1777425427 | 2.22° C | 70% | 1029.8 hPa | - | - | - | - |
| 1777410218 | 3.89° C | 69% | 1029.4 hPa | - | - | - | - |
| 1777398551 | 6.11° C | 58% | 1028.6 hPa | - | - | - | - |
| 1777394917 | 7.78° C | 52% | 1028.4 hPa | - | - | - | - |
| 1777394017 | 9.44° C | 49% | 1028.4 hPa | - | - | - | - |
| 1777393117 | 13.33° C | 39% | 1028.4 hPa | - | - | - | - |
| 1777385951 | 12.78° C | 44% | 1028.3 hPa | - | - | - | - |
| 1777384211 | 12.22° C | 48% | 1028.4 hPa | - | - | - | - |
| 1777383346 | 16.11° C | 40% | 1028.2 hPa | - | - | - | - |
| 1777383310 | 16.11° C | 40% | 1028.2 hPa | - | - | - | - |
| 1777382444 | 12.22° C | 47% | 1028.3 hPa | - | - | - | - |
| 1777381543 | 12.78° C | 47% | 1028.3 hPa | - | - | - | - |
| 1777381510 | 12.78° C | 47% | 1028.3 hPa | - | - | - | - |
| 1777380610 | 13.33° C | 48% | 1028.2 hPa | - | - | - | - |
| 1777379710 | 11.67° C | 50% | 1028.2 hPa | - | - | - | - |
| 1777378841 | 12.22° C | 50% | 1028.2 hPa | - | - | - | - |
| 1777377909 | 13.89° C | 42% | 1028.1 hPa | - | - | - | - |
| 1777376111 | 13.89° C | 47% | 1028.1 hPa | - | - | - | - |
| 1777375211 | 10° C | 56% | 1028 hPa | - | - | - | - |
| 1777374310 | 11.11° C | 53% | 1028 hPa | - | - | - | - |
| 1777372510 | 9.44° C | 56% | 1027.8 hPa | - | - | - | - |
| 1777371610 | 11.67° C | 47% | 1027.7 hPa | - | - | - | - |
| 1777369810 | 12.78° C | 43% | 1028 hPa | - | - | - | - |
| 1777368910 | 11.11° C | 38% | 1027.9 hPa | - | - | - | - |
| 1777367110 | 12.78° C | 30% | 1027.8 hPa | - | - | - | - |
* Rain since midnight (hover to see other rain measurements)
** Current wind speed in m/s (hover to see current wind gust speed)